FMMI/TNR METAR and TAF weather

Enter ICAO airport designator
Station Type Date Time Source
FMMI METAR 2020/08/05 17:00 UTC NOAA

FMMI 051700Z 13005KT 110V180 9999 FEW020 14/11 Q1023 NOSIG


Station Type Date Time Source
FMMI Decoded METAR 2020/08/05 17:00 UTC NOAA

Antananarivo / Ivato, Madagascar (FMMI) 18-48S 047-29E 1276M
Aug 05, 2020 - 01:00 PM EDT / 2020.08.05 1700 UTC
Wind: from the SE (130 degrees) at 6 MPH (5 KT) (direction variable):0
Visibility: greater than 7 mile(s):0
Sky conditions: mostly clear
Temperature: 57 F (14 C)
Dew Point: 51 F (11 C)
Relative Humidity: 82%
Pressure (altimeter): 30.21 in. Hg (1023 hPa)
ob: FMMI 051700Z 13005KT 110V180 9999 FEW020 14/11 Q1023 NOSIG
cycle: 17

Station Type Date Time Source
FMMI TAF 2020/08/05 18:06 UTC NOAA

TAF FMMI 051700Z 0518/0624 VRB04KT 9999 FEW020 PROB40 0600/0606 0400 FG BKN004

Example: see airport list